Time;durP1;ratioP1;P1;durP2;ratioP2;P2;SDS_P1;SDS_P2;PMS_P1;PMS_P2;Temp;Humidity;BMP_temperature;BMP_pressure;BME280_temperature;BME280_humidity;BME280_pressure;Samples;Min_cycle;Max_cycle;Signal;HPM_P1;HPM_P2
2023/08/04 00:00:18;;;;;;;0.60;0.40;;;;;;;;;;5057749;28;20421;-85
2023/08/04 00:02:45;;;;;;;0.60;0.40;;;;;;;;;;5058465;28;20472;-85
2023/08/04 00:05:11;;;;;;;0.87;0.50;;;;;;;;;;5058672;28;20460;-85
2023/08/04 00:07:37;;;;;;;1.30;0.40;;;;;;;;;;5058535;28;20417;-85
2023/08/04 00:10:03;;;;;;;2.30;0.60;;;;;;;;;;5058591;28;20447;-85
2023/08/04 00:12:30;;;;;;;0.43;0.30;;;;;;;;;;5058415;28;20757;-85
2023/08/04 00:14:56;;;;;;;1.33;0.50;;;;;;;;;;5059396;28;20566;-85
2023/08/04 00:17:22;;;;;;;1.30;0.55;;;;;;;;;;5057618;28;20874;-85
2023/08/04 00:19:48;;;;;;;0.98;0.50;;;;;;;;;;5059220;28;20397;-85
2023/08/04 00:22:14;;;;;;;1.65;0.60;;;;;;;;;;5059502;28;20447;-85
2023/08/04 00:24:40;;;;;;;0.93;0.45;;;;;;;;;;5058385;28;20803;-85
2023/08/04 00:27:06;;;;;;;1.85;0.50;;;;;;;;;;5058492;28;20396;-85
2023/08/04 00:29:32;;;;;;;1.23;0.40;;;;;;;;;;5058340;28;20424;-85
2023/08/04 00:31:58;;;;;;;2.03;0.75;;;;;;;;;;5057801;28;20389;-85
2023/08/04 00:34:24;;;;;;;1.03;0.40;;;;;;;;;;5057665;28;20877;-85
2023/08/04 00:36:50;;;;;;;1.20;0.50;;;;;;;;;;5057996;28;20444;-85
2023/08/04 00:39:16;;;;;;;1.33;0.47;;;;;;;;;;5057887;28;20381;-85
2023/08/04 00:41:42;;;;;;;0.80;0.43;;;;;;;;;;5057500;28;20396;-85
2023/08/04 00:44:08;;;;;;;2.60;0.52;;;;;;;;;;5057396;28;20409;-85
2023/08/04 00:46:35;;;;;;;1.00;0.50;;;;;;;;;;5057987;28;20392;-85
2023/08/04 00:49:02;;;;;;;1.55;0.60;;;;;;;;;;5041354;28;20389;-85
2023/08/04 00:51:30;;;;;;;1.50;0.70;;;;;;;;;;5057576;28;20385;-85
2023/08/04 00:53:56;;;;;;;1.50;0.63;;;;;;;;;;5057571;28;20439;-85
2023/08/04 00:56:22;;;;;;;2.90;0.60;;;;;;;;;;5057210;28;20409;-85
2023/08/04 00:58:48;;;;;;;1.38;0.65;;;;;;;;;;5056683;28;20857;-85
2023/08/04 01:01:14;;;;;;;1.27;0.68;;;;;;;;;;5056053;28;20469;-85
2023/08/04 01:03:41;;;;;;;1.00;0.60;;;;;;;;;;5057447;28;20464;-85
2023/08/04 01:06:25;;;;;;;1.98;0.55;;;;;;;;;;5057555;28;20427;-85
2023/08/04 01:09:01;;;;;;;0.95;0.50;;;;;;;;;;5057693;28;20389;-85
2023/08/04 01:11:31;;;;;;;1.13;0.60;;;;;;;;;;5059188;28;20401;-85
2023/08/04 01:13:57;;;;;;;1.75;0.60;;;;;;;;;;5058060;28;20449;-85
2023/08/04 01:16:23;;;;;;;1.23;0.70;;;;;;;;;;5057381;28;20417;-85
2023/08/04 01:18:49;;;;;;;0.98;0.60;;;;;;;;;;5057319;28;20421;-85
2023/08/04 01:21:15;;;;;;;1.17;0.30;;;;;;;;;;5059573;28;20389;-85
2023/08/04 01:23:41;;;;;;;0.90;0.55;;;;;;;;;;5056135;28;20455;-85
2023/08/04 01:26:10;;;;;;;1.10;0.50;;;;;;;;;;5057447;28;20428;-85
2023/08/04 01:28:36;;;;;;;0.70;0.50;;;;;;;;;;5057055;28;20417;-85
2023/08/04 01:31:03;;;;;;;1.37;0.57;;;;;;;;;;5056753;28;20394;-84
2023/08/04 01:33:30;;;;;;;2.10;0.55;;;;;;;;;;5056864;28;20388;-85
2023/08/04 01:35:56;;;;;;;1.75;0.50;;;;;;;;;;5057079;28;20433;-85
2023/08/04 01:38:22;;;;;;;1.75;0.70;;;;;;;;;;5057792;28;21044;-85
2023/08/04 01:40:48;;;;;;;1.80;0.60;;;;;;;;;;5056995;28;20441;-85
2023/08/04 01:43:14;;;;;;;2.17;0.60;;;;;;;;;;5057123;28;20382;-85
2023/08/04 01:45:40;;;;;;;0.80;0.45;;;;;;;;;;5056751;28;20451;-85
2023/08/04 01:48:05;;;;;;;0.93;0.45;;;;;;;;;;5057169;28;20428;-85
2023/08/04 01:50:31;;;;;;;1.30;0.40;;;;;;;;;;5056665;28;20420;-85
2023/08/04 01:52:58;;;;;;;0.98;0.50;;;;;;;;;;5056656;28;20385;-85
2023/08/04 01:55:24;;;;;;;0.77;0.60;;;;;;;;;;5056067;28;20440;-85
2023/08/04 01:57:50;;;;;;;1.60;0.52;;;;;;;;;;5056102;28;20407;-85
2023/08/04 02:00:18;;;;;;;2.03;0.57;;;;;;;;;;5056335;28;20389;-85
2023/08/04 02:02:44;;;;;;;1.20;0.55;;;;;;;;;;5056493;28;20467;-85
2023/08/04 02:05:10;;;;;;;1.30;0.50;;;;;;;;;;5056090;28;20842;-85
2023/08/04 02:07:36;;;;;;;0.70;0.40;;;;;;;;;;5056511;28;20389;-85
2023/08/04 02:10:03;;;;;;;1.48;0.50;;;;;;;;;;5056958;28;20408;-84
2023/08/04 02:12:29;;;;;;;0.98;0.38;;;;;;;;;;5056059;28;20465;-84
2023/08/04 02:14:55;;;;;;;1.00;0.50;;;;;;;;;;5055562;28;20401;-85
2023/08/04 02:17:20;;;;;;;3.00;0.70;;;;;;;;;;5055854;28;20386;-85
2023/08/04 02:19:46;;;;;;;1.50;0.50;;;;;;;;;;5056167;28;20421;-85
2023/08/04 02:22:13;;;;;;;1.15;0.50;;;;;;;;;;5055928;28;20397;-85
2023/08/04 02:24:39;;;;;;;1.80;0.60;;;;;;;;;;5055875;28;20769;-85
2023/08/04 02:27:06;;;;;;;1.55;0.65;;;;;;;;;;5054619;28;21478;-85
2023/08/04 02:29:32;;;;;;;1.20;0.60;;;;;;;;;;5055697;28;20412;-85
2023/08/04 02:31:58;;;;;;;1.03;0.47;;;;;;;;;;5055602;28;20780;-85
2023/08/04 02:34:24;;;;;;;1.08;0.55;;;;;;;;;;5056068;28;20390;-85
2023/08/04 02:36:50;;;;;;;1.67;0.57;;;;;;;;;;5055733;28;20381;-85
2023/08/04 02:39:16;;;;;;;3.28;0.60;;;;;;;;;;5056178;28;20461;-85
2023/08/04 02:41:42;;;;;;;1.90;0.70;;;;;;;;;;5055492;28;20384;-85
2023/08/04 02:44:08;;;;;;;1.38;0.50;;;;;;;;;;5055967;28;20404;-85
2023/08/04 02:46:34;;;;;;;1.27;0.50;;;;;;;;;;5056004;28;20386;-85
2023/08/04 02:49:00;;;;;;;1.00;0.50;;;;;;;;;;5055338;28;20457;-85
2023/08/04 02:51:26;;;;;;;1.00;0.60;;;;;;;;;;5054525;28;20405;-85
2023/08/04 02:53:52;;;;;;;1.10;0.50;;;;;;;;;;5055634;28;20850;-85
2023/08/04 02:56:18;;;;;;;2.15;0.68;;;;;;;;;;5055305;28;20421;-85
2023/08/04 02:58:45;;;;;;;1.70;0.50;;;;;;;;;;5055206;28;20464;-85
2023/08/04 03:01:12;;;;;;;1.25;0.60;;;;;;;;;;5055452;28;20386;-85
2023/08/04 03:03:38;;;;;;;1.00;0.50;;;;;;;;;;5054456;28;20381;-85
2023/08/04 03:06:04;;;;;;;0.57;0.37;;;;;;;;;;5055325;28;20378;-84
2023/08/04 03:08:31;;;;;;;1.75;0.70;;;;;;;;;;5056391;28;20396;-85
2023/08/04 03:10:57;;;;;;;1.55;0.50;;;;;;;;;;5055553;28;20413;-85
2023/08/04 03:13:23;;;;;;;1.17;0.45;;;;;;;;;;5054964;28;20905;-85
2023/08/04 03:16:00;;;;;;;1.40;0.50;;;;;;;;;;5054821;28;20439;-85
2023/08/04 03:18:26;;;;;;;1.30;0.68;;;;;;;;;;5055079;28;20385;-85
2023/08/04 03:20:52;;;;;;;1.45;0.68;;;;;;;;;;5054739;28;20392;-85
2023/08/04 03:23:19;;;;;;;1.38;0.70;;;;;;;;;;5056055;28;20894;-85
2023/08/04 03:25:45;;;;;;;1.60;0.80;;;;;;;;;;5055000;28;20385;-85
2023/08/04 03:28:11;;;;;;;1.27;0.70;;;;;;;;;;5055227;28;20859;-85
2023/08/04 03:30:37;;;;;;;1.83;1.10;;;;;;;;;;5054959;28;20742;-85
2023/08/04 03:33:03;;;;;;;1.30;0.93;;;;;;;;;;5054947;28;20473;-85
2023/08/04 03:35:30;;;;;;;2.10;0.90;;;;;;;;;;5055006;28;20453;-85
2023/08/04 03:37:56;;;;;;;2.33;1.40;;;;;;;;;;5055894;28;20480;-85
2023/08/04 03:40:22;;;;;;;2.97;1.20;;;;;;;;;;5054765;28;20536;-85
2023/08/04 03:42:48;;;;;;;2.40;1.00;;;;;;;;;;5055247;28;20442;-85
2023/08/04 03:45:14;;;;;;;2.60;1.00;;;;;;;;;;5054694;28;20384;-85
2023/08/04 03:47:40;;;;;;;1.93;1.00;;;;;;;;;;5053649;28;20385;-85
2023/08/04 03:50:07;;;;;;;3.17;1.13;;;;;;;;;;5053423;28;20373;-85
2023/08/04 03:52:33;;;;;;;1.60;0.90;;;;;;;;;;5053637;28;20389;-85
2023/08/04 03:54:59;;;;;;;2.58;1.05;;;;;;;;;;5053533;28;20902;-85
2023/08/04 03:57:25;;;;;;;2.78;1.30;;;;;;;;;;5053206;28;20423;-85
2023/08/04 03:59:52;;;;;;;1.98;1.10;;;;;;;;;;5053391;28;20472;-85
2023/08/04 04:02:19;;;;;;;1.80;1.10;;;;;;;;;;5054238;28;20432;-85
2023/08/04 04:04:45;;;;;;;3.45;0.95;;;;;;;;;;5057244;28;20961;-85
2023/08/04 04:07:10;;;;;;;4.78;1.20;;;;;;;;;;5058634;28;20427;-85
2023/08/04 04:09:37;;;;;;;1.67;0.90;;;;;;;;;;5058126;28;20462;-85
2023/08/04 04:12:03;;;;;;;2.25;1.05;;;;;;;;;;5057859;28;20421;-85
2023/08/04 04:14:29;;;;;;;1.67;1.13;;;;;;;;;;5057179;28;20786;-85
2023/08/04 04:16:55;;;;;;;2.08;1.10;;;;;;;;;;5058159;28;20389;-85
2023/08/04 04:19:21;;;;;;;2.85;1.02;;;;;;;;;;5058007;28;20453;-85
2023/08/04 04:21:47;;;;;;;2.08;0.90;;;;;;;;;;5057587;28;20415;-85
2023/08/04 04:24:13;;;;;;;2.53;1.00;;;;;;;;;;5057913;28;20430;-85
2023/08/04 04:26:39;;;;;;;1.70;1.10;;;;;;;;;;5057557;28;20809;-85
2023/08/04 04:29:05;;;;;;;1.80;0.90;;;;;;;;;;5058928;28;20397;-85
2023/08/04 04:31:31;;;;;;;3.20;1.30;;;;;;;;;;5057209;28;20377;-85
2023/08/04 04:33:57;;;;;;;3.20;0.90;;;;;;;;;;5058567;28;20413;-85
2023/08/04 04:36:23;;;;;;;1.38;1.02;;;;;;;;;;5058038;28;20456;-85
2023/08/04 04:38:49;;;;;;;2.00;1.10;;;;;;;;;;5057527;28;20381;-85
2023/08/04 04:41:15;;;;;;;2.67;1.20;;;;;;;;;;5057381;28;20400;-85
2023/08/04 04:43:41;;;;;;;1.73;1.10;;;;;;;;;;5057579;28;20459;-85
2023/08/04 04:46:06;;;;;;;2.93;1.03;;;;;;;;;;5057530;28;20390;-85
2023/08/04 04:48:33;;;;;;;3.65;1.10;;;;;;;;;;5056627;28;20397;-84
2023/08/04 04:50:58;;;;;;;2.15;1.02;;;;;;;;;;5059188;28;20386;-84
2023/08/04 04:53:24;;;;;;;1.80;1.10;;;;;;;;;;5057978;28;20515;-85
2023/08/04 04:55:50;;;;;;;1.75;0.98;;;;;;;;;;5057058;28;20413;-85
2023/08/04 04:58:16;;;;;;;2.25;1.20;;;;;;;;;;5058134;28;20894;-85
2023/08/04 05:00:44;;;;;;;2.20;1.10;;;;;;;;;;5058184;28;20503;-84
2023/08/04 05:03:11;;;;;;;2.00;1.00;;;;;;;;;;5057906;28;20390;-85
2023/08/04 05:05:38;;;;;;;2.50;0.70;;;;;;;;;;5055902;28;20378;-85
2023/08/04 05:08:04;;;;;;;1.95;1.10;;;;;;;;;;5055939;28;20946;-85
2023/08/04 05:10:30;;;;;;;2.80;1.10;;;;;;;;;;5055869;28;20378;-85
2023/08/04 05:12:56;;;;;;;2.08;0.90;;;;;;;;;;5056075;28;20403;-85
2023/08/04 05:15:22;;;;;;;2.15;1.10;;;;;;;;;;5054818;28;20413;-85
2023/08/04 05:17:48;;;;;;;3.15;1.40;;;;;;;;;;5055545;28;20384;-85
2023/08/04 05:20:14;;;;;;;2.00;1.10;;;;;;;;;;5056290;28;20398;-85
2023/08/04 05:22:41;;;;;;;2.13;1.63;;;;;;;;;;5055919;28;20739;-85
2023/08/04 05:25:08;;;;;;;3.63;2.22;;;;;;;;;;5054930;28;20413;-85
2023/08/04 05:27:34;;;;;;;2.75;1.50;;;;;;;;;;5057019;28;20407;-85
2023/08/04 05:30:03;;;;;;;4.50;1.30;;;;;;;;;;5055257;28;20421;-85
2023/08/04 05:32:29;;;;;;;2.80;0.80;;;;;;;;;;5055276;28;20393;-85
2023/08/04 05:34:55;;;;;;;0.82;0.60;;;;;;;;;;5055244;28;20481;-84
2023/08/04 05:37:21;;;;;;;1.75;0.70;;;;;;;;;;5055590;28;20385;-86
2023/08/04 05:39:47;;;;;;;2.42;0.70;;;;;;;;;;5056008;28;20769;-85
2023/08/04 05:42:13;;;;;;;1.73;0.70;;;;;;;;;;5057388;28;20704;-85
2023/08/04 05:44:39;;;;;;;1.58;0.70;;;;;;;;;;5056241;28;20464;-85
2023/08/04 05:47:05;;;;;;;1.02;0.60;;;;;;;;;;5056333;28;20385;-85
2023/08/04 05:49:34;;;;;;;2.88;0.68;;;;;;;;;;5055831;28;20378;-85
2023/08/04 05:52:00;;;;;;;1.05;0.50;;;;;;;;;;5055779;28;20390;-85
2023/08/04 05:54:26;;;;;;;2.65;0.88;;;;;;;;;;5055816;28;20386;-85
2023/08/04 05:56:52;;;;;;;1.92;0.63;;;;;;;;;;5055991;28;20409;-85
2023/08/04 05:59:18;;;;;;;2.20;0.60;;;;;;;;;;5055390;28;20415;-84
2023/08/04 06:01:44;;;;;;;1.98;0.65;;;;;;;;;;5054665;28;20397;-84
2023/08/04 06:04:10;;;;;;;0.80;0.70;;;;;;;;;;5055844;28;20874;-85
2023/08/04 06:06:36;;;;;;;2.00;0.63;;;;;;;;;;5056379;28;20733;-86
2023/08/04 06:09:03;;;;;;;1.23;0.50;;;;;;;;;;5055256;28;20824;-85
2023/08/04 06:11:29;;;;;;;1.57;0.63;;;;;;;;;;5054725;28;20464;-85
2023/08/04 06:13:55;;;;;;;1.65;0.68;;;;;;;;;;5054920;28;20889;-85
2023/08/04 06:16:21;;;;;;;1.25;0.50;;;;;;;;;;5055462;28;20413;-85
2023/08/04 06:18:47;;;;;;;3.10;0.70;;;;;;;;;;5054985;28;20388;-85
2023/08/04 06:21:13;;;;;;;1.70;0.70;;;;;;;;;;5055198;28;20389;-85
2023/08/04 06:23:45;;;;;;;1.10;0.60;;;;;;;;;;5056852;28;20438;-85
2023/08/04 06:26:11;;;;;;;2.28;0.70;;;;;;;;;;5055560;28;20449;-85
2023/08/04 06:28:37;;;;;;;1.25;0.68;;;;;;;;;;5054704;28;20389;-85
2023/08/04 06:31:03;;;;;;;1.63;0.60;;;;;;;;;;5055321;28;20405;-85
2023/08/04 06:33:29;;;;;;;2.83;0.77;;;;;;;;;;5055466;28;20857;-85
2023/08/04 06:35:55;;;;;;;2.90;0.93;;;;;;;;;;5054216;28;20440;-84
2023/08/04 06:38:21;;;;;;;1.75;0.80;;;;;;;;;;5054237;28;20420;-85
2023/08/04 06:40:47;;;;;;;1.17;0.73;;;;;;;;;;5056000;28;20380;-85
2023/08/04 06:43:13;;;;;;;1.73;0.80;;;;;;;;;;5055421;28;20389;-84
2023/08/04 06:45:39;;;;;;;1.70;0.70;;;;;;;;;;5053544;28;20424;-84
2023/08/04 06:48:05;;;;;;;2.60;0.60;;;;;;;;;;5053862;28;20389;-84
2023/08/04 06:50:31;;;;;;;1.17;0.70;;;;;;;;;;5053961;28;20456;-85
2023/08/04 06:52:57;;;;;;;1.67;0.65;;;;;;;;;;5054207;28;20394;-84
2023/08/04 06:55:23;;;;;;;1.85;0.70;;;;;;;;;;5054089;28;20409;-85
2023/08/04 06:57:49;;;;;;;2.60;0.68;;;;;;;;;;5053767;28;20405;-85
2023/08/04 07:00:17;;;;;;;1.77;0.70;;;;;;;;;;5054407;28;20408;-84
2023/08/04 07:02:45;;;;;;;1.70;0.65;;;;;;;;;;5053883;28;20390;-84
2023/08/04 07:05:11;;;;;;;1.88;1.00;;;;;;;;;;5054680;28;20830;-84
2023/08/04 07:07:37;;;;;;;2.63;0.80;;;;;;;;;;5055859;28;20465;-84
2023/08/04 07:10:03;;;;;;;2.20;0.75;;;;;;;;;;5055162;28;20401;-85
2023/08/04 07:12:29;;;;;;;2.50;0.70;;;;;;;;;;5056204;28;20450;-84
2023/08/04 07:14:55;;;;;;;1.00;0.70;;;;;;;;;;5055949;28;20417;-85
2023/08/04 07:17:21;;;;;;;1.67;0.73;;;;;;;;;;5055860;28;20381;-85
2023/08/04 07:19:48;;;;;;;3.40;0.85;;;;;;;;;;5056080;28;20389;-85
2023/08/04 07:22:14;;;;;;;1.17;0.60;;;;;;;;;;5055932;28;20385;-85
2023/08/04 07:24:40;;;;;;;2.50;0.90;;;;;;;;;;5055789;28;20397;-85
2023/08/04 07:27:06;;;;;;;1.38;0.70;;;;;;;;;;5055756;28;20462;-85
2023/08/04 07:29:34;;;;;;;1.63;0.65;;;;;;;;;;5056022;28;20692;-85
2023/08/04 07:32:00;;;;;;;1.52;0.60;;;;;;;;;;5055548;28;20455;-85
2023/08/04 07:34:26;;;;;;;1.35;0.50;;;;;;;;;;5055587;28;20850;-86
2023/08/04 07:36:52;;;;;;;1.17;0.60;;;;;;;;;;5055818;28;20919;-84
2023/08/04 07:39:18;;;;;;;2.42;0.70;;;;;;;;;;5059312;28;20392;-84
2023/08/04 07:41:44;;;;;;;1.17;0.60;;;;;;;;;;5058749;28;20389;-84
2023/08/04 07:44:10;;;;;;;1.50;0.57;;;;;;;;;;5058418;28;20393;-84
2023/08/04 07:46:36;;;;;;;1.10;0.52;;;;;;;;;;5058585;28;20862;-85
2023/08/04 07:49:02;;;;;;;2.70;0.50;;;;;;;;;;5058865;28;20461;-85
2023/08/04 07:51:28;;;;;;;1.50;0.60;;;;;;;;;;5059240;28;20397;-85
2023/08/04 07:53:54;;;;;;;1.98;0.60;;;;;;;;;;5059771;28;20393;-85
2023/08/04 07:56:20;;;;;;;2.17;0.60;;;;;;;;;;5058392;28;20417;-85
2023/08/04 07:58:47;;;;;;;1.48;0.50;;;;;;;;;;5059706;28;20388;-85
2023/08/04 08:01:13;;;;;;;1.13;0.40;;;;;;;;;;5060354;28;20393;-85
2023/08/04 08:03:41;;;;;;;1.30;0.50;;;;;;;;;;5059710;28;20381;-85
2023/08/04 08:06:07;;;;;;;2.17;0.40;;;;;;;;;;5058477;28;20750;-85
2023/08/04 08:08:33;;;;;;;1.30;0.57;;;;;;;;;;5059306;28;20385;-85
2023/08/04 08:11:02;;;;;;;0.50;0.30;;;;;;;;;;5058661;28;21045;-85
2023/08/04 08:13:28;;;;;;;1.87;0.40;;;;;;;;;;5059323;28;20382;-85
2023/08/04 08:15:55;;;;;;;0.55;0.35;;;;;;;;;;5058954;28;20472;-85
2023/08/04 08:18:21;;;;;;;0.80;0.50;;;;;;;;;;5058445;28;20464;-85
2023/08/04 08:20:47;;;;;;;0.73;0.50;;;;;;;;;;5058410;28;20381;-85
2023/08/04 08:23:13;;;;;;;1.00;0.40;;;;;;;;;;5059773;28;20476;-85
2023/08/04 08:25:41;;;;;;;0.50;0.30;;;;;;;;;;5059594;28;20424;-85
2023/08/04 08:28:07;;;;;;;0.98;0.50;;;;;;;;;;5059098;28;20382;-85
2023/08/04 08:30:33;;;;;;;1.70;1.10;;;;;;;;;;5059941;28;20405;-85
2023/08/04 08:32:59;;;;;;;0.70;0.38;;;;;;;;;;5058963;28;20381;-85
2023/08/04 08:35:25;;;;;;;0.77;0.40;;;;;;;;;;5059498;28;20495;-85
2023/08/04 08:37:51;;;;;;;0.80;0.50;;;;;;;;;;5059003;28;20975;-85
2023/08/04 08:40:18;;;;;;;1.02;0.40;;;;;;;;;;5057976;28;20385;-85
2023/08/04 08:42:44;;;;;;;1.05;0.40;;;;;;;;;;5059312;28;20913;-85
2023/08/04 08:45:10;;;;;;;0.50;0.43;;;;;;;;;;5059797;28;20409;-85
2023/08/04 08:47:37;;;;;;;1.35;0.55;;;;;;;;;;5059366;28;20381;-85
2023/08/04 08:50:04;;;;;;;0.75;0.47;;;;;;;;;;5059978;28;20735;-85
2023/08/04 08:52:32;;;;;;;1.77;0.40;;;;;;;;;;5058354;28;20777;-85
2023/08/04 08:54:59;;;;;;;0.68;0.30;;;;;;;;;;5059809;28;20436;-85
2023/08/04 08:57:25;;;;;;;0.95;0.50;;;;;;;;;;5060047;28;20439;-85
2023/08/04 08:59:51;;;;;;;1.45;0.60;;;;;;;;;;5059954;28;20375;-85
2023/08/04 09:02:17;;;;;;;0.93;0.55;;;;;;;;;;5059793;28;20416;-85
2023/08/04 09:04:43;;;;;;;0.98;0.70;;;;;;;;;;5060298;28;20476;-85
2023/08/04 09:07:09;;;;;;;2.33;0.70;;;;;;;;;;5060061;28;20424;-85
2023/08/04 09:09:36;;;;;;;2.23;0.60;;;;;;;;;;5059967;28;20401;-86
2023/08/04 09:12:02;;;;;;;1.33;0.50;;;;;;;;;;5057825;28;20397;-85
2023/08/04 09:14:28;;;;;;;0.60;0.35;;;;;;;;;;5060409;28;20394;-86
2023/08/04 09:16:54;;;;;;;0.80;0.50;;;;;;;;;;5060306;28;20382;-85
2023/08/04 09:19:20;;;;;;;1.35;0.45;;;;;;;;;;5060861;28;20396;-85
2023/08/04 09:21:46;;;;;;;2.25;0.50;;;;;;;;;;5061384;28;20456;-86
2023/08/04 09:24:13;;;;;;;1.38;0.50;;;;;;;;;;5061374;28;20726;-86
2023/08/04 09:26:43;;;;;;;2.22;0.40;;;;;;;;;;5061621;28;20378;-86
2023/08/04 09:29:09;;;;;;;0.80;0.40;;;;;;;;;;5060335;28;20423;-87
2023/08/04 09:31:36;;;;;;;1.20;0.30;;;;;;;;;;5058751;28;20426;-85
2023/08/04 09:34:06;;;;;;;0.70;0.50;;;;;;;;;;5059268;28;20389;-85
2023/08/04 09:36:32;;;;;;;0.90;0.40;;;;;;;;;;5059078;28;20424;-86
2023/08/04 09:39:04;;;;;;;1.10;0.32;;;;;;;;;;5061300;28;20390;-86
2023/08/04 09:41:34;;;;;;;0.93;0.43;;;;;;;;;;5060566;28;20391;-86
2023/08/04 09:44:04;;;;;;;0.98;0.40;;;;;;;;;;5059416;28;20719;-86
2023/08/04 09:46:30;;;;;;;0.85;0.40;;;;;;;;;;5061094;28;20771;-86
2023/08/04 09:49:00;;;;;;;0.90;0.30;;;;;;;;;;5060179;28;20381;-86
2023/08/04 09:51:26;;;;;;;0.43;0.40;;;;;;;;;;5060674;28;20401;-86
2023/08/04 09:53:56;;;;;;;0.87;0.33;;;;;;;;;;5060240;28;20417;-87
2023/08/04 09:56:28;;;;;;;0.60;0.40;;;;;;;;;;5059961;28;20414;-86
2023/08/04 09:58:54;;;;;;;0.45;0.40;;;;;;;;;;5060441;28;20390;-86
2023/08/04 10:01:20;;;;;;;1.13;0.32;;;;;;;;;;5058920;28;20374;-86
2023/08/04 10:03:51;;;;;;;0.50;0.32;;;;;;;;;;5059249;28;20739;-86
2023/08/04 10:06:17;;;;;;;1.38;0.40;;;;;;;;;;5060114;28;20382;-86
2023/08/04 10:08:44;;;;;;;0.95;0.30;;;;;;;;;;5061481;28;20382;-86
2023/08/04 10:11:10;;;;;;;0.90;0.30;;;;;;;;;;5062067;28;20389;-86
2023/08/04 10:13:41;;;;;;;1.63;0.77;;;;;;;;;;5061122;28;20400;-86
2023/08/04 10:16:08;;;;;;;1.65;0.40;;;;;;;;;;5061309;28;20401;-86
2023/08/04 10:18:48;;;;;;;0.85;0.43;;;;;;;;;;5063188;28;20389;-86
2023/08/04 10:21:14;;;;;;;1.35;0.40;;;;;;;;;;5059737;28;20460;-86
2023/08/04 10:23:41;;;;;;;0.90;0.40;;;;;;;;;;5063070;28;20392;-86
2023/08/04 10:26:10;;;;;;;0.90;0.35;;;;;;;;;;5062996;28;20503;-86
2023/08/04 10:28:56;;;;;;;0.80;0.40;;;;;;;;;;5061056;28;20384;-86
2023/08/04 10:31:22;;;;;;;0.80;0.40;;;;;;;;;;5062248;28;20395;-86
2023/08/04 10:34:08;;;;;;;0.93;0.47;;;;;;;;;;5063946;28;20409;-86
2023/08/04 10:36:52;;;;;;;0.90;0.30;;;;;;;;;;5060041;28;20440;-86
2023/08/04 10:39:26;;;;;;;1.55;0.50;;;;;;;;;;5061232;28;20386;-86
2023/08/04 10:41:52;;;;;;;1.35;0.28;;;;;;;;;;5060926;28;20374;-86
2023/08/04 10:44:18;;;;;;;0.80;0.30;;;;;;;;;;5061205;28;20469;-86
2023/08/04 10:46:47;;;;;;;0.70;0.22;;;;;;;;;;5063938;28;20389;-86
2023/08/04 10:49:14;;;;;;;0.45;0.20;;;;;;;;;;5062026;28;20389;-87
2023/08/04 10:51:40;;;;;;;0.85;0.50;;;;;;;;;;5062925;28;20402;-86
2023/08/04 10:54:06;;;;;;;0.60;0.28;;;;;;;;;;5062949;28;20400;-86
2023/08/04 10:56:32;;;;;;;0.93;0.40;;;;;;;;;;5059023;28;20417;-86
2023/08/04 10:58:58;;;;;;;0.60;0.30;;;;;;;;;;5059440;28;20378;-86
2023/08/04 11:01:27;;;;;;;1.53;0.40;;;;;;;;;;5059541;28;20396;-86
2023/08/04 11:03:54;;;;;;;0.40;0.30;;;;;;;;;;5061422;28;20428;-86
2023/08/04 11:06:20;;;;;;;1.80;0.47;;;;;;;;;;5061706;28;20382;-86
2023/08/04 11:08:46;;;;;;;0.60;0.30;;;;;;;;;;5060503;28;20412;-86
2023/08/04 11:11:13;;;;;;;0.38;0.25;;;;;;;;;;5063018;28;20397;-86
2023/08/04 11:13:39;;;;;;;0.70;0.30;;;;;;;;;;5062508;28;20424;-86
2023/08/04 11:16:06;;;;;;;0.70;0.30;;;;;;;;;;5061779;28;20421;-86
2023/08/04 11:18:32;;;;;;;1.10;0.40;;;;;;;;;;5063614;28;20378;-85
2023/08/04 11:21:02;;;;;;;0.80;0.35;;;;;;;;;;5062348;28;20385;-85
2023/08/04 11:23:29;;;;;;;0.73;0.30;;;;;;;;;;5062385;28;20419;-86
2023/08/04 11:25:56;;;;;;;0.80;0.40;;;;;;;;;;5062901;28;20874;-86
2023/08/04 11:28:22;;;;;;;0.50;0.32;;;;;;;;;;5062603;28;20477;-87
2023/08/04 11:30:48;;;;;;;0.80;0.25;;;;;;;;;;5064442;28;20374;-86
2023/08/04 11:33:16;;;;;;;0.57;0.30;;;;;;;;;;5064293;28;20381;-86
2023/08/04 11:35:44;;;;;;;0.70;0.35;;;;;;;;;;5061244;28;20417;-86
2023/08/04 11:38:10;;;;;;;0.73;0.38;;;;;;;;;;5063449;28;20393;-86
2023/08/04 11:40:37;;;;;;;1.85;0.40;;;;;;;;;;5066410;28;20439;-86
2023/08/04 11:43:03;;;;;;;1.35;0.40;;;;;;;;;;5065404;28;20406;-86
2023/08/04 11:45:32;;;;;;;1.02;0.50;;;;;;;;;;5064471;28;20393;-86
2023/08/04 11:47:59;;;;;;;0.70;0.30;;;;;;;;;;5063569;28;20476;-86
2023/08/04 11:50:25;;;;;;;0.73;0.40;;;;;;;;;;5062202;28;20389;-86
2023/08/04 11:52:52;;;;;;;1.48;0.32;;;;;;;;;;5064652;28;20381;-86
2023/08/04 11:55:18;;;;;;;1.10;0.50;;;;;;;;;;5065350;28;20401;-86
2023/08/04 11:57:53;;;;;;;1.00;0.40;;;;;;;;;;5063161;28;20390;-86
2023/08/04 12:00:34;;;;;;;1.90;0.43;;;;;;;;;;5063480;28;20403;-86
2023/08/04 12:03:01;;;;;;;0.50;0.30;;;;;;;;;;5062420;28;20374;-86
2023/08/04 12:05:31;;;;;;;1.02;0.32;;;;;;;;;;5063269;28;20385;-86
2023/08/04 12:07:57;;;;;;;1.00;0.40;;;;;;;;;;5062679;28;20401;-86
2023/08/04 12:10:24;;;;;;;0.80;0.30;;;;;;;;;;5063424;28;20374;-86
2023/08/04 12:12:50;;;;;;;0.63;0.22;;;;;;;;;;5061907;28;20433;-86
2023/08/04 12:15:16;;;;;;;1.55;0.35;;;;;;;;;;5062395;28;20417;-86
2023/08/04 12:17:43;;;;;;;0.70;0.38;;;;;;;;;;5062024;28;20926;-86
2023/08/04 12:20:12;;;;;;;0.75;0.50;;;;;;;;;;5062439;28;20402;-85
2023/08/04 12:22:39;;;;;;;0.70;0.20;;;;;;;;;;5062935;28;20373;-86
2023/08/04 12:25:05;;;;;;;1.85;0.40;;;;;;;;;;5064689;28;20389;-86
2023/08/04 12:27:32;;;;;;;0.55;0.38;;;;;;;;;;5065775;28;20385;-86
2023/08/04 12:29:58;;;;;;;1.08;0.40;;;;;;;;;;5064465;28;20397;-85
2023/08/04 12:32:24;;;;;;;0.47;0.30;;;;;;;;;;5064126;28;20389;-86
2023/08/04 12:34:50;;;;;;;0.77;0.43;;;;;;;;;;5062695;28;20457;-86
2023/08/04 12:37:16;;;;;;;0.85;0.40;;;;;;;;;;5064036;28;20425;-86
2023/08/04 12:39:44;;;;;;;1.58;0.50;;;;;;;;;;5062421;28;20390;-86
2023/08/04 12:42:10;;;;;;;2.13;0.50;;;;;;;;;;5065006;28;20408;-86
2023/08/04 12:44:36;;;;;;;0.93;0.40;;;;;;;;;;5064428;28;20385;-86
2023/08/04 12:47:02;;;;;;;1.40;0.40;;;;;;;;;;5062602;28;20424;-86
2023/08/04 12:49:28;;;;;;;1.33;0.43;;;;;;;;;;5064052;28;20870;-87
2023/08/04 12:51:55;;;;;;;0.60;0.30;;;;;;;;;;5066029;28;20388;-87
2023/08/04 12:54:22;;;;;;;0.77;0.30;;;;;;;;;;5067803;28;20393;-86
2023/08/04 12:56:49;;;;;;;1.15;0.32;;;;;;;;;;5066749;28;20846;-87
2023/08/04 12:59:15;;;;;;;0.40;0.30;;;;;;;;;;5066052;28;20396;-86
2023/08/04 13:01:41;;;;;;;1.58;0.45;;;;;;;;;;5064796;28;20401;-87
2023/08/04 13:04:07;;;;;;;1.00;0.30;;;;;;;;;;5064360;28;20444;-87
2023/08/04 13:06:33;;;;;;;1.20;0.20;;;;;;;;;;5065732;28;20393;-86
2023/08/04 13:08:59;;;;;;;0.60;0.30;;;;;;;;;;5066355;28;20511;-86
2023/08/04 13:11:25;;;;;;;0.57;0.38;;;;;;;;;;5063657;28;20747;-86
2023/08/04 13:13:52;;;;;;;0.80;0.35;;;;;;;;;;5065278;28;20405;-86
2023/08/04 13:16:18;;;;;;;1.20;0.30;;;;;;;;;;5065432;28;20435;-86
2023/08/04 13:18:44;;;;;;;0.85;0.20;;;;;;;;;;5063998;28;20402;-88
2023/08/04 13:21:10;;;;;;;1.02;0.30;;;;;;;;;;5063896;28;20378;-86
2023/08/04 13:23:36;;;;;;;0.40;0.20;;;;;;;;;;5065381;28;20382;-86
2023/08/04 13:26:07;;;;;;;0.90;0.30;;;;;;;;;;5062699;28;20386;-86
2023/08/04 13:28:33;;;;;;;0.77;0.40;;;;;;;;;;5063295;28;20457;-87
2023/08/04 13:30:59;;;;;;;0.63;0.30;;;;;;;;;;5064369;28;20476;-86
2023/08/04 13:33:28;;;;;;;0.52;0.40;;;;;;;;;;5063494;28;20393;-86
2023/08/04 13:35:55;;;;;;;0.65;0.32;;;;;;;;;;5061047;28;20477;-86
2023/08/04 13:38:21;;;;;;;0.85;0.32;;;;;;;;;;5062004;28;20382;-86
2023/08/04 13:40:47;;;;;;;0.40;0.20;;;;;;;;;;5062276;28;20739;-86
2023/08/04 13:43:13;;;;;;;0.70;0.20;;;;;;;;;;5061926;28;20878;-86
2023/08/04 13:45:39;;;;;;;0.90;0.30;;;;;;;;;;5063913;28;20435;-86
2023/08/04 13:48:06;;;;;;;2.55;0.30;;;;;;;;;;5062794;28;20454;-88
2023/08/04 13:50:32;;;;;;;0.60;0.30;;;;;;;;;;5062232;28;20390;-86
2023/08/04 13:52:58;;;;;;;0.50;0.10;;;;;;;;;;5063318;28;20831;-86
2023/08/04 13:55:27;;;;;;;0.25;0.05;;;;;;;;;;5062020;28;20474;-86
2023/08/04 13:57:53;;;;;;;0.77;0.10;;;;;;;;;;5063669;28;20401;-87
2023/08/04 14:00:19;;;;;;;0.10;0.10;;;;;;;;;;5063064;28;20416;-86
2023/08/04 14:02:45;;;;;;;0.68;0.10;;;;;;;;;;5062979;28;20381;-86
2023/08/04 14:05:11;;;;;;;0.10;0.10;;;;;;;;;;5061772;28;20492;-86
2023/08/04 14:07:43;;;;;;;0.65;0.20;;;;;;;;;;5063804;28;20472;-86
2023/08/04 14:10:13;;;;;;;0.35;0.20;;;;;;;;;;5063308;28;20766;-86
2023/08/04 14:12:39;;;;;;;0.30;0.20;;;;;;;;;;5062600;28;20382;-88
2023/08/04 14:15:06;;;;;;;1.70;0.15;;;;;;;;;;5062567;28;20480;-86
2023/08/04 14:17:32;;;;;;;0.70;0.28;;;;;;;;;;5062809;28;20436;-86
2023/08/04 14:19:58;;;;;;;2.45;1.75;;;;;;;;;;5061142;28;20397;-86
2023/08/04 14:22:23;;;;;;;1.45;0.50;;;;;;;;;;5061928;28;20439;-85
2023/08/04 14:24:49;;;;;;;0.17;0.13;;;;;;;;;;5060412;28;20420;-85
2023/08/04 14:27:16;;;;;;;0.20;0.10;;;;;;;;;;5063054;28;20393;-85
2023/08/04 14:29:42;;;;;;;0.40;0.13;;;;;;;;;;5062941;28;20381;-85
2023/08/04 14:32:09;;;;;;;0.20;0.00;;;;;;;;;;5062867;28;20393;-85
2023/08/04 14:34:36;;;;;;;0.20;0.10;;;;;;;;;;5061842;28;20834;-85
2023/08/04 14:37:02;;;;;;;0.20;0.17;;;;;;;;;;5060482;28;20436;-85
2023/08/04 14:39:31;;;;;;;0.90;0.32;;;;;;;;;;5062886;28;20397;-85